Frolovo, Russia
Current Conditions -  °F | °C
As of 11:30 PM on Wednesday 26 Nov 2014 (Local Time) from URWW Reporting Station
Clear Clear  
Wind Chill:   Ceiling: Unl
Heat Index: 18°   Visibility: 6mi
Dew Point: -2°   Wind: 13mph
Humidity: 42%   Direction: 90°E
Pressure: 30.39"   Gusts: 20mph
Location:  49.77°N, 43.65°E
Report Text: URWW 262030Z 09006G09MPS CAVOK M08/M19 Q1029 NOSIG RMK11CLRD70
Loading
Personal Weather Stations






























Interactive Weather Map New forecast layout! Learn more

10-Day Weather Forecast

Advertisements
Track Severe Weather on mobile